Terminal Aerodrome Forecast
Issued by NWS

Current Version | Previous Version | Graphics & Text | Print | Product List | Glossary On
Versions: 1 2 3 4 5 6 7 8 9 10 11 12 13 14 15 16 17 18 19 20 21 22 23 24 25 26 27
000
FTUS41 KRLX 201500 AAA
TAFCKB
TAF AMD
KCKB 201506Z 2015/2112 VRB03KT P6SM BKN110
     FM202000 17005KT P6SM VCSH BKN040
     FM210700 00000KT 5SM BR SCT035=

USA.gov is the U.S. government's official web portal to all federal, state and local government web resources and services.